sensor_id;sensor_type;location;lat;lon;timestamp;temperature;humidity
7936;DHT22;4013;49.744;8.118;2022-10-23T00:00:17;12.40;99.90
7936;DHT22;4013;49.744;8.118;2022-10-23T00:02:50;12.50;99.90
7936;DHT22;4013;49.744;8.118;2022-10-23T00:05:17;12.40;99.90
7936;DHT22;4013;49.744;8.118;2022-10-23T00:07:45;12.40;99.90
7936;DHT22;4013;49.744;8.118;2022-10-23T00:10:14;12.40;99.90
7936;DHT22;4013;49.744;8.118;2022-10-23T00:12:41;12.30;99.90
7936;DHT22;4013;49.744;8.118;2022-10-23T00:15:08;12.40;99.90
7936;DHT22;4013;49.744;8.118;2022-10-23T00:17:37;12.30;99.90
7936;DHT22;4013;49.744;8.118;2022-10-23T00:20:05;12.20;99.90
7936;DHT22;4013;49.744;8.118;2022-10-23T00:22:32;12.20;99.90
7936;DHT22;4013;49.744;8.118;2022-10-23T00:24:59;12.20;99.90
7936;DHT22;4013;49.744;8.118;2022-10-23T00:27:26;12.20;99.90
7936;DHT22;4013;49.744;8.118;2022-10-23T00:29:53;12.20;99.90
7936;DHT22;4013;49.744;8.118;2022-10-23T00:32:20;12.10;99.90
7936;DHT22;4013;49.744;8.118;2022-10-23T00:34:48;12.10;99.90
7936;DHT22;4013;49.744;8.118;2022-10-23T00:37:15;12.00;99.90
7936;DHT22;4013;49.744;8.118;2022-10-23T00:39:42;12.10;99.90
7936;DHT22;4013;49.744;8.118;2022-10-23T00:42:09;12.20;99.90
7936;DHT22;4013;49.744;8.118;2022-10-23T00:47:50;12.20;99.90
7936;DHT22;4013;49.744;8.118;2022-10-23T00:50:20;12.10;99.90
7936;DHT22;4013;49.744;8.118;2022-10-23T00:52:50;12.20;99.90
7936;DHT22;4013;49.744;8.118;2022-10-23T00:55:19;12.10;99.90
7936;DHT22;4013;49.744;8.118;2022-10-23T00:57:48;12.00;99.90
7936;DHT22;4013;49.744;8.118;2022-10-23T01:00:18;12.00;99.90
7936;DHT22;4013;49.744;8.118;2022-10-23T01:02:45;11.90;99.90
7936;DHT22;4013;49.744;8.118;2022-10-23T01:05:12;11.80;99.90
7936;DHT22;4013;49.744;8.118;2022-10-23T01:07:48;11.80;99.90
7936;DHT22;4013;49.744;8.118;2022-10-23T01:10:22;11.80;99.90
7936;DHT22;4013;49.744;8.118;2022-10-23T01:12:57;11.80;99.90
7936;DHT22;4013;49.744;8.118;2022-10-23T01:15:31;11.80;99.90
7936;DHT22;4013;49.744;8.118;2022-10-23T01:18:05;11.70;99.90
7936;DHT22;4013;49.744;8.118;2022-10-23T01:20:39;11.70;99.90
7936;DHT22;4013;49.744;8.118;2022-10-23T01:23:21;11.70;99.90
7936;DHT22;4013;49.744;8.118;2022-10-23T01:25:59;11.70;99.90
7936;DHT22;4013;49.744;8.118;2022-10-23T01:28:31;11.60;99.90
7936;DHT22;4013;49.744;8.118;2022-10-23T01:31:01;11.60;99.90
7936;DHT22;4013;49.744;8.118;2022-10-23T01:33:33;11.60;99.90
7936;DHT22;4013;49.744;8.118;2022-10-23T01:36:04;11.50;99.90
7936;DHT22;4013;49.744;8.118;2022-10-23T01:38:38;11.50;99.90
7936;DHT22;4013;49.744;8.118;2022-10-23T01:41:10;11.70;99.90
7936;DHT22;4013;49.744;8.118;2022-10-23T01:43:44;11.70;99.90
7936;DHT22;4013;49.744;8.118;2022-10-23T01:46:15;11.70;99.90
7936;DHT22;4013;49.744;8.118;2022-10-23T01:48:46;11.70;99.90
7936;DHT22;4013;49.744;8.118;2022-10-23T01:51:14;11.70;99.90
7936;DHT22;4013;49.744;8.118;2022-10-23T01:53:43;11.60;99.90
7936;DHT22;4013;49.744;8.118;2022-10-23T01:56:13;11.70;99.90
7936;DHT22;4013;49.744;8.118;2022-10-23T01:58:45;11.70;99.90
7936;DHT22;4013;49.744;8.118;2022-10-23T02:01:14;11.70;99.90
7936;DHT22;4013;49.744;8.118;2022-10-23T02:03:44;11.80;99.90
7936;DHT22;4013;49.744;8.118;2022-10-23T02:06:11;11.80;99.90
7936;DHT22;4013;49.744;8.118;2022-10-23T02:08:38;11.70;99.90
7936;DHT22;4013;49.744;8.118;2022-10-23T02:11:07;11.60;99.90
7936;DHT22;4013;49.744;8.118;2022-10-23T02:13:43;11.60;99.90
7936;DHT22;4013;49.744;8.118;2022-10-23T02:16:16;11.60;99.90
7936;DHT22;4013;49.744;8.118;2022-10-23T02:18:50;11.70;99.90
7936;DHT22;4013;49.744;8.118;2022-10-23T02:21:26;11.70;99.90
7936;DHT22;4013;49.744;8.118;2022-10-23T02:24:00;11.70;99.90
7936;DHT22;4013;49.744;8.118;2022-10-23T02:26:30;11.80;99.90
7936;DHT22;4013;49.744;8.118;2022-10-23T02:29:04;11.70;99.90
7936;DHT22;4013;49.744;8.118;2022-10-23T02:31:32;11.70;99.90
7936;DHT22;4013;49.744;8.118;2022-10-23T02:33:59;11.80;99.90
7936;DHT22;4013;49.744;8.118;2022-10-23T02:36:26;11.80;99.90
7936;DHT22;4013;49.744;8.118;2022-10-23T02:38:53;11.80;99.90
7936;DHT22;4013;49.744;8.118;2022-10-23T02:41:32;11.80;99.90
7936;DHT22;4013;49.744;8.118;2022-10-23T02:44:16;11.90;99.90
7936;DHT22;4013;49.744;8.118;2022-10-23T02:46:50;11.80;99.90
7936;DHT22;4013;49.744;8.118;2022-10-23T02:49:23;11.80;99.90
7936;DHT22;4013;49.744;8.118;2022-10-23T02:52:00;11.80;99.90
7936;DHT22;4013;49.744;8.118;2022-10-23T02:54:48;11.70;99.90
7936;DHT22;4013;49.744;8.118;2022-10-23T02:57:22;11.90;99.90
7936;DHT22;4013;49.744;8.118;2022-10-23T03:00:00;11.70;99.90
7936;DHT22;4013;49.744;8.118;2022-10-23T03:02:33;11.70;99.90
7936;DHT22;4013;49.744;8.118;2022-10-23T03:05:03;11.60;99.90
7936;DHT22;4013;49.744;8.118;2022-10-23T03:07:32;11.60;99.90
7936;DHT22;4013;49.744;8.118;2022-10-23T03:09:59;11.50;99.90
7936;DHT22;4013;49.744;8.118;2022-10-23T03:12:26;11.40;99.90
7936;DHT22;4013;49.744;8.118;2022-10-23T03:14:54;11.40;99.90
7936;DHT22;4013;49.744;8.118;2022-10-23T03:17:21;11.40;99.90
7936;DHT22;4013;49.744;8.118;2022-10-23T03:19:49;11.30;99.90
7936;DHT22;4013;49.744;8.118;2022-10-23T03:22:16;11.30;99.90
7936;DHT22;4013;49.744;8.118;2022-10-23T03:24:43;11.30;99.90
7936;DHT22;4013;49.744;8.118;2022-10-23T03:27:10;11.40;99.90
7936;DHT22;4013;49.744;8.118;2022-10-23T03:29:37;11.40;99.90
7936;DHT22;4013;49.744;8.118;2022-10-23T03:32:05;11.40;99.90
7936;DHT22;4013;49.744;8.118;2022-10-23T03:34:32;11.50;99.90
7936;DHT22;4013;49.744;8.118;2022-10-23T03:36:59;11.50;99.90
7936;DHT22;4013;49.744;8.118;2022-10-23T03:39:26;11.50;99.90
7936;DHT22;4013;49.744;8.118;2022-10-23T03:41:53;11.40;99.90
7936;DHT22;4013;49.744;8.118;2022-10-23T03:44:20;11.30;99.90
7936;DHT22;4013;49.744;8.118;2022-10-23T03:46:47;11.20;99.90
7936;DHT22;4013;49.744;8.118;2022-10-23T03:49:15;11.20;99.90
7936;DHT22;4013;49.744;8.118;2022-10-23T03:51:42;11.30;99.90
7936;DHT22;4013;49.744;8.118;2022-10-23T03:54:17;11.40;99.90
7936;DHT22;4013;49.744;8.118;2022-10-23T03:56:44;11.30;99.90
7936;DHT22;4013;49.744;8.118;2022-10-23T03:59:11;11.30;99.90
7936;DHT22;4013;49.744;8.118;2022-10-23T04:01:38;11.30;99.90
7936;DHT22;4013;49.744;8.118;2022-10-23T04:04:04;11.40;99.90
7936;DHT22;4013;49.744;8.118;2022-10-23T04:06:33;11.40;99.90
7936;DHT22;4013;49.744;8.118;2022-10-23T04:09:00;11.30;99.90
7936;DHT22;4013;49.744;8.118;2022-10-23T04:11:27;11.40;99.90
7936;DHT22;4013;49.744;8.118;2022-10-23T04:13:54;11.40;99.90
7936;DHT22;4013;49.744;8.118;2022-10-23T04:16:21;11.30;99.90
7936;DHT22;4013;49.744;8.118;2022-10-23T04:18:48;11.30;99.90
7936;DHT22;4013;49.744;8.118;2022-10-23T04:21:15;11.40;99.90
7936;DHT22;4013;49.744;8.118;2022-10-23T04:23:43;11.40;99.90
7936;DHT22;4013;49.744;8.118;2022-10-23T04:26:10;11.40;99.90
7936;DHT22;4013;49.744;8.118;2022-10-23T04:28:37;11.40;99.90
7936;DHT22;4013;49.744;8.118;2022-10-23T04:31:04;11.40;99.90
7936;DHT22;4013;49.744;8.118;2022-10-23T04:33:31;11.30;99.90
7936;DHT22;4013;49.744;8.118;2022-10-23T04:35:58;11.30;99.90
7936;DHT22;4013;49.744;8.118;2022-10-23T04:38:25;11.30;99.90
7936;DHT22;4013;49.744;8.118;2022-10-23T04:40:53;11.30;99.90
7936;DHT22;4013;49.744;8.118;2022-10-23T04:43:20;11.30;99.90
7936;DHT22;4013;49.744;8.118;2022-10-23T04:45:47;11.30;99.90
7936;DHT22;4013;49.744;8.118;2022-10-23T04:48:14;11.30;99.90
7936;DHT22;4013;49.744;8.118;2022-10-23T04:50:41;11.20;99.90
7936;DHT22;4013;49.744;8.118;2022-10-23T04:53:08;11.20;99.90
7936;DHT22;4013;49.744;8.118;2022-10-23T04:55:35;11.10;99.90
7936;DHT22;4013;49.744;8.118;2022-10-23T04:58:03;11.10;99.90
7936;DHT22;4013;49.744;8.118;2022-10-23T05:00:30;11.00;99.90
7936;DHT22;4013;49.744;8.118;2022-10-23T05:02:57;11.00;99.90
7936;DHT22;4013;49.744;8.118;2022-10-23T05:05:24;11.00;99.90
7936;DHT22;4013;49.744;8.118;2022-10-23T05:07:51;10.90;99.90
7936;DHT22;4013;49.744;8.118;2022-10-23T05:10:18;11.00;99.90
7936;DHT22;4013;49.744;8.118;2022-10-23T05:12:44;11.10;99.90
7936;DHT22;4013;49.744;8.118;2022-10-23T05:15:13;11.10;99.90
7936;DHT22;4013;49.744;8.118;2022-10-23T05:17:42;10.90;99.90
7936;DHT22;4013;49.744;8.118;2022-10-23T05:20:13;10.90;99.90
7936;DHT22;4013;49.744;8.118;2022-10-23T05:22:43;11.00;99.90
7936;DHT22;4013;49.744;8.118;2022-10-23T05:25:12;10.90;99.90
7936;DHT22;4013;49.744;8.118;2022-10-23T05:27:39;10.90;99.90
7936;DHT22;4013;49.744;8.118;2022-10-23T05:30:07;10.90;99.90
7936;DHT22;4013;49.744;8.118;2022-10-23T05:32:36;11.00;99.90
7936;DHT22;4013;49.744;8.118;2022-10-23T05:35:07;10.90;99.90
7936;DHT22;4013;49.744;8.118;2022-10-23T05:37:36;11.00;99.90
7936;DHT22;4013;49.744;8.118;2022-10-23T05:40:04;11.00;99.90
7936;DHT22;4013;49.744;8.118;2022-10-23T05:42:31;10.80;99.90
7936;DHT22;4013;49.744;8.118;2022-10-23T05:44:58;10.60;99.90
7936;DHT22;4013;49.744;8.118;2022-10-23T05:47:25;10.80;99.90
7936;DHT22;4013;49.744;8.118;2022-10-23T05:49:53;10.80;99.90
7936;DHT22;4013;49.744;8.118;2022-10-23T05:52:20;10.80;99.90
7936;DHT22;4013;49.744;8.118;2022-10-23T05:54:49;10.80;99.90
7936;DHT22;4013;49.744;8.118;2022-10-23T05:57:17;10.70;99.90
7936;DHT22;4013;49.744;8.118;2022-10-23T05:59:43;10.80;99.90
7936;DHT22;4013;49.744;8.118;2022-10-23T06:02:10;10.80;99.90
7936;DHT22;4013;49.744;8.118;2022-10-23T06:04:37;10.80;99.90
7936;DHT22;4013;49.744;8.118;2022-10-23T06:07:05;10.80;99.90
7936;DHT22;4013;49.744;8.118;2022-10-23T06:09:32;10.80;99.90
7936;DHT22;4013;49.744;8.118;2022-10-23T06:12:00;10.80;99.90
7936;DHT22;4013;49.744;8.118;2022-10-23T06:14:27;10.90;99.90
7936;DHT22;4013;49.744;8.118;2022-10-23T06:16:54;10.90;99.90
7936;DHT22;4013;49.744;8.118;2022-10-23T06:19:20;10.80;99.90
7936;DHT22;4013;49.744;8.118;2022-10-23T06:21:47;10.80;99.90
7936;DHT22;4013;49.744;8.118;2022-10-23T06:24:15;10.90;99.90
7936;DHT22;4013;49.744;8.118;2022-10-23T06:26:42;11.00;99.90
7936;DHT22;4013;49.744;8.118;2022-10-23T06:29:10;11.00;99.90
7936;DHT22;4013;49.744;8.118;2022-10-23T06:31:37;10.80;99.90
7936;DHT22;4013;49.744;8.118;2022-10-23T06:34:04;10.70;99.90
7936;DHT22;4013;49.744;8.118;2022-10-23T06:36:31;10.60;99.90
7936;DHT22;4013;49.744;8.118;2022-10-23T06:38:58;10.60;99.90
7936;DHT22;4013;49.744;8.118;2022-10-23T06:41:26;10.50;99.90
7936;DHT22;4013;49.744;8.118;2022-10-23T06:43:53;10.50;99.90
7936;DHT22;4013;49.744;8.118;2022-10-23T06:46:20;10.50;99.90
7936;DHT22;4013;49.744;8.118;2022-10-23T06:48:47;10.60;99.90
7936;DHT22;4013;49.744;8.118;2022-10-23T06:51:16;10.60;99.90
7936;DHT22;4013;49.744;8.118;2022-10-23T06:53:43;10.70;99.90
7936;DHT22;4013;49.744;8.118;2022-10-23T06:56:10;10.70;99.90
7936;DHT22;4013;49.744;8.118;2022-10-23T06:58:39;10.70;99.90
7936;DHT22;4013;49.744;8.118;2022-10-23T07:01:07;10.80;99.90
7936;DHT22;4013;49.744;8.118;2022-10-23T07:03:35;10.90;99.90
7936;DHT22;4013;49.744;8.118;2022-10-23T07:06:03;10.90;99.90
7936;DHT22;4013;49.744;8.118;2022-10-23T07:08:30;10.90;99.90
7936;DHT22;4013;49.744;8.118;2022-10-23T07:10:57;11.00;99.90
7936;DHT22;4013;49.744;8.118;2022-10-23T07:13:23;11.00;99.90
7936;DHT22;4013;49.744;8.118;2022-10-23T07:15:52;11.10;99.90
7936;DHT22;4013;49.744;8.118;2022-10-23T07:18:18;11.10;99.90
7936;DHT22;4013;49.744;8.118;2022-10-23T07:20:45;11.10;99.90
7936;DHT22;4013;49.744;8.118;2022-10-23T07:23:14;11.20;99.90
7936;DHT22;4013;49.744;8.118;2022-10-23T07:25:41;11.40;99.90
7936;DHT22;4013;49.744;8.118;2022-10-23T07:28:08;11.50;99.90
7936;DHT22;4013;49.744;8.118;2022-10-23T07:30:35;11.50;99.90
7936;DHT22;4013;49.744;8.118;2022-10-23T07:33:03;11.40;99.90
7936;DHT22;4013;49.744;8.118;2022-10-23T07:35:30;11.20;99.90
7936;DHT22;4013;49.744;8.118;2022-10-23T07:37:58;11.30;99.90
7936;DHT22;4013;49.744;8.118;2022-10-23T07:40:25;11.30;99.90
7936;DHT22;4013;49.744;8.118;2022-10-23T07:42:52;11.20;99.90
7936;DHT22;4013;49.744;8.118;2022-10-23T07:45:19;11.30;99.90
7936;DHT22;4013;49.744;8.118;2022-10-23T07:47:49;11.40;99.90
7936;DHT22;4013;49.744;8.118;2022-10-23T07:50:18;11.30;99.90
7936;DHT22;4013;49.744;8.118;2022-10-23T07:52:45;11.30;99.90
7936;DHT22;4013;49.744;8.118;2022-10-23T07:55:12;11.50;99.90
7936;DHT22;4013;49.744;8.118;2022-10-23T07:57:39;11.60;99.90
7936;DHT22;4013;49.744;8.118;2022-10-23T08:00:08;11.70;99.90
7936;DHT22;4013;49.744;8.118;2022-10-23T08:02:35;11.80;99.90
7936;DHT22;4013;49.744;8.118;2022-10-23T08:05:02;11.90;99.90
7936;DHT22;4013;49.744;8.118;2022-10-23T08:07:30;11.80;99.90
7936;DHT22;4013;49.744;8.118;2022-10-23T08:09:57;11.80;99.90
7936;DHT22;4013;49.744;8.118;2022-10-23T08:12:24;11.90;99.90
7936;DHT22;4013;49.744;8.118;2022-10-23T08:14:51;12.00;99.90
7936;DHT22;4013;49.744;8.118;2022-10-23T08:17:18;11.90;99.90
7936;DHT22;4013;49.744;8.118;2022-10-23T08:19:45;11.90;99.90
7936;DHT22;4013;49.744;8.118;2022-10-23T08:22:13;12.00;99.90
7936;DHT22;4013;49.744;8.118;2022-10-23T08:24:41;12.10;99.90
7936;DHT22;4013;49.744;8.118;2022-10-23T08:27:08;12.10;99.90
7936;DHT22;4013;49.744;8.118;2022-10-23T08:29:35;12.30;99.90
7936;DHT22;4013;49.744;8.118;2022-10-23T08:32:02;12.30;99.90
7936;DHT22;4013;49.744;8.118;2022-10-23T08:34:29;12.40;99.90
7936;DHT22;4013;49.744;8.118;2022-10-23T08:36:56;12.50;99.90
7936;DHT22;4013;49.744;8.118;2022-10-23T08:39:22;12.60;99.90
7936;DHT22;4013;49.744;8.118;2022-10-23T08:41:51;12.70;99.90
7936;DHT22;4013;49.744;8.118;2022-10-23T08:44:22;12.70;99.90
7936;DHT22;4013;49.744;8.118;2022-10-23T08:47:01;12.80;99.90
7936;DHT22;4013;49.744;8.118;2022-10-23T08:49:44;12.90;99.90
7936;DHT22;4013;49.744;8.118;2022-10-23T08:52:18;13.00;99.90
7936;DHT22;4013;49.744;8.118;2022-10-23T08:54:59;13.00;99.90
7936;DHT22;4013;49.744;8.118;2022-10-23T08:57:32;13.00;99.90
7936;DHT22;4013;49.744;8.118;2022-10-23T09:00:05;13.20;99.90
7936;DHT22;4013;49.744;8.118;2022-10-23T09:02:36;13.20;99.90
7936;DHT22;4013;49.744;8.118;2022-10-23T09:05:10;13.20;99.90
7936;DHT22;4013;49.744;8.118;2022-10-23T09:07:41;13.30;99.90
7936;DHT22;4013;49.744;8.118;2022-10-23T09:10:45;13.40;99.90
7936;DHT22;4013;49.744;8.118;2022-10-23T09:13:33;13.40;99.90
7936;DHT22;4013;49.744;8.118;2022-10-23T09:16:09;13.50;99.90
7936;DHT22;4013;49.744;8.118;2022-10-23T09:18:39;13.60;99.90
7936;DHT22;4013;49.744;8.118;2022-10-23T09:21:09;13.60;99.90
7936;DHT22;4013;49.744;8.118;2022-10-23T09:23:36;13.70;99.90
7936;DHT22;4013;49.744;8.118;2022-10-23T09:26:10;13.70;99.90
7936;DHT22;4013;49.744;8.118;2022-10-23T09:28:46;13.70;99.90
7936;DHT22;4013;49.744;8.118;2022-10-23T09:31:13;13.70;99.90
7936;DHT22;4013;49.744;8.118;2022-10-23T09:33:40;13.70;99.90
7936;DHT22;4013;49.744;8.118;2022-10-23T09:36:17;13.70;99.90
7936;DHT22;4013;49.744;8.118;2022-10-23T09:38:48;13.80;99.90
7936;DHT22;4013;49.744;8.118;2022-10-23T09:41:18;13.80;99.90
7936;DHT22;4013;49.744;8.118;2022-10-23T09:43:57;13.90;99.90
7936;DHT22;4013;49.744;8.118;2022-10-23T09:46:24;13.90;99.90
7936;DHT22;4013;49.744;8.118;2022-10-23T09:48:56;13.90;99.90
7936;DHT22;4013;49.744;8.118;2022-10-23T09:51:23;14.00;99.90
7936;DHT22;4013;49.744;8.118;2022-10-23T09:53:52;14.00;99.90
7936;DHT22;4013;49.744;8.118;2022-10-23T09:56:25;14.00;99.90
7936;DHT22;4013;49.744;8.118;2022-10-23T09:58:56;14.10;99.90
7936;DHT22;4013;49.744;8.118;2022-10-23T10:01:24;14.10;99.90
7936;DHT22;4013;49.744;8.118;2022-10-23T10:03:51;14.10;99.90
7936;DHT22;4013;49.744;8.118;2022-10-23T10:06:22;14.10;99.90
7936;DHT22;4013;49.744;8.118;2022-10-23T10:08:52;14.10;99.90
7936;DHT22;4013;49.744;8.118;2022-10-23T10:11:24;14.10;99.90
7936;DHT22;4013;49.744;8.118;2022-10-23T10:16:50;14.10;99.90
7936;DHT22;4013;49.744;8.118;2022-10-23T10:19:28;14.00;99.90
7936;DHT22;4013;49.744;8.118;2022-10-23T10:22:04;14.00;99.90
7936;DHT22;4013;49.744;8.118;2022-10-23T10:24:40;14.00;99.90
7936;DHT22;4013;49.744;8.118;2022-10-23T10:27:26;14.10;99.90
7936;DHT22;4013;49.744;8.118;2022-10-23T10:30:04;14.10;99.90
7936;DHT22;4013;49.744;8.118;2022-10-23T10:32:39;14.10;99.90
7936;DHT22;4013;49.744;8.118;2022-10-23T10:35:21;14.20;99.90
7936;DHT22;4013;49.744;8.118;2022-10-23T10:40:56;14.30;99.90
7936;DHT22;4013;49.744;8.118;2022-10-23T10:43:39;14.40;99.90
7936;DHT22;4013;49.744;8.118;2022-10-23T10:46:12;14.60;99.90
7936;DHT22;4013;49.744;8.118;2022-10-23T10:48:46;14.70;99.90
7936;DHT22;4013;49.744;8.118;2022-10-23T10:51:21;14.80;99.90
7936;DHT22;4013;49.744;8.118;2022-10-23T10:54:04;15.00;99.90
7936;DHT22;4013;49.744;8.118;2022-10-23T10:56:37;15.10;99.90
7936;DHT22;4013;49.744;8.118;2022-10-23T10:59:11;15.20;99.90
7936;DHT22;4013;49.744;8.118;2022-10-23T11:01:45;15.20;99.90
7936;DHT22;4013;49.744;8.118;2022-10-23T11:04:21;15.20;99.90
7936;DHT22;4013;49.744;8.118;2022-10-23T11:06:53;15.20;99.90
7936;DHT22;4013;49.744;8.118;2022-10-23T11:09:24;15.30;99.90
7936;DHT22;4013;49.744;8.118;2022-10-23T11:11:51;15.40;99.90
7936;DHT22;4013;49.744;8.118;2022-10-23T11:14:21;15.50;99.90
7936;DHT22;4013;49.744;8.118;2022-10-23T11:16:51;15.50;99.90
7936;DHT22;4013;49.744;8.118;2022-10-23T11:19:21;15.50;99.90
7936;DHT22;4013;49.744;8.118;2022-10-23T11:21:56;15.50;99.90
7936;DHT22;4013;49.744;8.118;2022-10-23T11:24:38;15.60;99.90
7936;DHT22;4013;49.744;8.118;2022-10-23T11:27:21;15.70;99.90
7936;DHT22;4013;49.744;8.118;2022-10-23T11:30:09;15.80;99.90
7936;DHT22;4013;49.744;8.118;2022-10-23T11:33:10;16.00;99.90
7936;DHT22;4013;49.744;8.118;2022-10-23T11:35:49;16.10;99.90
7936;DHT22;4013;49.744;8.118;2022-10-23T11:38:23;16.20;99.90
7936;DHT22;4013;49.744;8.118;2022-10-23T11:40:56;16.30;99.90
7936;DHT22;4013;49.744;8.118;2022-10-23T11:43:28;16.30;99.90
7936;DHT22;4013;49.744;8.118;2022-10-23T11:45:56;16.40;99.90
7936;DHT22;4013;49.744;8.118;2022-10-23T11:48:35;16.50;99.90
7936;DHT22;4013;49.744;8.118;2022-10-23T11:51:03;16.60;99.90
7936;DHT22;4013;49.744;8.118;2022-10-23T11:53:38;16.70;99.90
7936;DHT22;4013;49.744;8.118;2022-10-23T11:56:24;16.60;99.90
7936;DHT22;4013;49.744;8.118;2022-10-23T11:58:55;16.60;99.90
7936;DHT22;4013;49.744;8.118;2022-10-23T12:01:28;16.60;99.90
7936;DHT22;4013;49.744;8.118;2022-10-23T12:04:00;16.70;99.90
7936;DHT22;4013;49.744;8.118;2022-10-23T12:06:31;16.70;99.90
7936;DHT22;4013;49.744;8.118;2022-10-23T12:09:01;16.90;99.90
7936;DHT22;4013;49.744;8.118;2022-10-23T12:11:42;17.00;99.90
7936;DHT22;4013;49.744;8.118;2022-10-23T12:14:30;17.10;99.90
7936;DHT22;4013;49.744;8.118;2022-10-23T12:16:58;17.20;99.90
7936;DHT22;4013;49.744;8.118;2022-10-23T12:19:29;17.20;99.90
7936;DHT22;4013;49.744;8.118;2022-10-23T12:21:58;17.30;99.90
7936;DHT22;4013;49.744;8.118;2022-10-23T12:24:41;17.40;99.90
7936;DHT22;4013;49.744;8.118;2022-10-23T12:27:18;17.40;99.90
7936;DHT22;4013;49.744;8.118;2022-10-23T12:30:12;17.40;99.90
7936;DHT22;4013;49.744;8.118;2022-10-23T12:32:49;17.40;99.90
7936;DHT22;4013;49.744;8.118;2022-10-23T12:35:45;17.30;99.90
7936;DHT22;4013;49.744;8.118;2022-10-23T12:38:16;17.30;99.90
7936;DHT22;4013;49.744;8.118;2022-10-23T12:40:44;17.30;99.90
7936;DHT22;4013;49.744;8.118;2022-10-23T12:43:23;17.40;99.90
7936;DHT22;4013;49.744;8.118;2022-10-23T12:45:52;17.50;99.90
7936;DHT22;4013;49.744;8.118;2022-10-23T12:48:20;17.60;99.90
7936;DHT22;4013;49.744;8.118;2022-10-23T12:50:50;17.60;99.90
7936;DHT22;4013;49.744;8.118;2022-10-23T12:53:19;17.70;99.90
7936;DHT22;4013;49.744;8.118;2022-10-23T12:55:48;17.80;99.90
7936;DHT22;4013;49.744;8.118;2022-10-23T12:58:18;17.80;99.90
7936;DHT22;4013;49.744;8.118;2022-10-23T13:00:49;17.90;99.90
7936;DHT22;4013;49.744;8.118;2022-10-23T13:03:16;17.80;99.90
7936;DHT22;4013;49.744;8.118;2022-10-23T13:05:45;17.90;99.90
7936;DHT22;4013;49.744;8.118;2022-10-23T13:08:14;18.10;99.90
7936;DHT22;4013;49.744;8.118;2022-10-23T13:10:41;18.40;99.90
7936;DHT22;4013;49.744;8.118;2022-10-23T13:13:11;18.60;99.90
7936;DHT22;4013;49.744;8.118;2022-10-23T13:15:39;18.70;99.90
7936;DHT22;4013;49.744;8.118;2022-10-23T13:18:08;19.00;99.90
7936;DHT22;4013;49.744;8.118;2022-10-23T13:20:37;19.30;99.90
7936;DHT22;4013;49.744;8.118;2022-10-23T13:23:14;19.40;99.90
7936;DHT22;4013;49.744;8.118;2022-10-23T13:25:52;19.20;99.90
7936;DHT22;4013;49.744;8.118;2022-10-23T13:28:25;19.00;99.90
7936;DHT22;4013;49.744;8.118;2022-10-23T13:33:46;18.50;99.90
7936;DHT22;4013;49.744;8.118;2022-10-23T13:36:22;18.30;99.90
7936;DHT22;4013;49.744;8.118;2022-10-23T13:38:59;18.20;99.90
7936;DHT22;4013;49.744;8.118;2022-10-23T13:41:32;18.10;99.90
7936;DHT22;4013;49.744;8.118;2022-10-23T13:44:01;18.20;99.90
7936;DHT22;4013;49.744;8.118;2022-10-23T13:46:28;18.30;99.90
7936;DHT22;4013;49.744;8.118;2022-10-23T13:48:55;18.30;99.90
7936;DHT22;4013;49.744;8.118;2022-10-23T13:51:23;18.40;99.90
7936;DHT22;4013;49.744;8.118;2022-10-23T13:53:51;18.50;99.90
7936;DHT22;4013;49.744;8.118;2022-10-23T13:56:20;18.70;99.90
7936;DHT22;4013;49.744;8.118;2022-10-23T13:58:49;18.70;99.90
7936;DHT22;4013;49.744;8.118;2022-10-23T14:01:20;18.60;99.90
7936;DHT22;4013;49.744;8.118;2022-10-23T14:03:47;18.50;99.90
7936;DHT22;4013;49.744;8.118;2022-10-23T14:06:14;18.50;99.90
7936;DHT22;4013;49.744;8.118;2022-10-23T14:08:41;18.50;99.90
7936;DHT22;4013;49.744;8.118;2022-10-23T14:11:09;18.40;99.90
7936;DHT22;4013;49.744;8.118;2022-10-23T14:13:36;18.30;99.90
7936;DHT22;4013;49.744;8.118;2022-10-23T14:16:05;18.30;99.90
7936;DHT22;4013;49.744;8.118;2022-10-23T14:18:32;18.20;99.90
7936;DHT22;4013;49.744;8.118;2022-10-23T14:20:59;18.10;99.90
7936;DHT22;4013;49.744;8.118;2022-10-23T14:23:26;18.10;99.90
7936;DHT22;4013;49.744;8.118;2022-10-23T14:25:53;18.00;99.90
7936;DHT22;4013;49.744;8.118;2022-10-23T14:28:26;17.90;99.90
7936;DHT22;4013;49.744;8.118;2022-10-23T14:30:53;17.90;99.90
7936;DHT22;4013;49.744;8.118;2022-10-23T14:33:21;17.90;99.90
7936;DHT22;4013;49.744;8.118;2022-10-23T14:35:49;17.80;99.90
7936;DHT22;4013;49.744;8.118;2022-10-23T14:38:18;17.80;99.90
7936;DHT22;4013;49.744;8.118;2022-10-23T14:40:45;17.80;99.90
7936;DHT22;4013;49.744;8.118;2022-10-23T14:43:12;17.80;99.90
7936;DHT22;4013;49.744;8.118;2022-10-23T14:45:39;17.70;99.90
7936;DHT22;4013;49.744;8.118;2022-10-23T14:48:06;17.70;99.90
7936;DHT22;4013;49.744;8.118;2022-10-23T14:50:36;17.70;99.90
7936;DHT22;4013;49.744;8.118;2022-10-23T14:53:03;17.70;99.90
7936;DHT22;4013;49.744;8.118;2022-10-23T14:55:30;17.70;99.90
7936;DHT22;4013;49.744;8.118;2022-10-23T14:57:57;17.70;99.90
7936;DHT22;4013;49.744;8.118;2022-10-23T15:00:24;17.70;99.90
7936;DHT22;4013;49.744;8.118;2022-10-23T15:02:50;17.70;99.90
7936;DHT22;4013;49.744;8.118;2022-10-23T15:05:18;17.80;99.90
7936;DHT22;4013;49.744;8.118;2022-10-23T15:07:46;17.70;99.90
7936;DHT22;4013;49.744;8.118;2022-10-23T15:10:14;17.70;99.90
7936;DHT22;4013;49.744;8.118;2022-10-23T15:12:40;17.60;99.90
7936;DHT22;4013;49.744;8.118;2022-10-23T15:15:08;17.60;99.90
7936;DHT22;4013;49.744;8.118;2022-10-23T15:17:35;17.70;99.90
7936;DHT22;4013;49.744;8.118;2022-10-23T15:20:04;17.70;99.90
7936;DHT22;4013;49.744;8.118;2022-10-23T15:22:32;17.70;99.90
7936;DHT22;4013;49.744;8.118;2022-10-23T15:25:00;17.70;99.90
7936;DHT22;4013;49.744;8.118;2022-10-23T15:27:27;17.70;99.90
7936;DHT22;4013;49.744;8.118;2022-10-23T15:29:54;17.70;99.90
7936;DHT22;4013;49.744;8.118;2022-10-23T15:32:21;17.70;99.90
7936;DHT22;4013;49.744;8.118;2022-10-23T15:34:48;17.70;99.90
7936;DHT22;4013;49.744;8.118;2022-10-23T15:37:16;17.60;99.90
7936;DHT22;4013;49.744;8.118;2022-10-23T15:39:43;17.60;99.90
7936;DHT22;4013;49.744;8.118;2022-10-23T15:42:12;17.60;99.90
7936;DHT22;4013;49.744;8.118;2022-10-23T15:44:39;17.60;99.90
7936;DHT22;4013;49.744;8.118;2022-10-23T15:47:06;17.60;99.90
7936;DHT22;4013;49.744;8.118;2022-10-23T15:49:33;17.60;99.90
7936;DHT22;4013;49.744;8.118;2022-10-23T15:52:00;17.60;99.90
7936;DHT22;4013;49.744;8.118;2022-10-23T15:54:28;17.60;99.90
7936;DHT22;4013;49.744;8.118;2022-10-23T15:56:55;17.60;99.90
7936;DHT22;4013;49.744;8.118;2022-10-23T15:59:24;17.50;99.90
7936;DHT22;4013;49.744;8.118;2022-10-23T16:01:51;17.50;99.90
7936;DHT22;4013;49.744;8.118;2022-10-23T16:04:20;17.50;99.90
7936;DHT22;4013;49.744;8.118;2022-10-23T16:06:47;17.50;99.90
7936;DHT22;4013;49.744;8.118;2022-10-23T16:09:14;17.40;99.90
7936;DHT22;4013;49.744;8.118;2022-10-23T16:11:42;17.50;99.90
7936;DHT22;4013;49.744;8.118;2022-10-23T16:14:11;17.40;99.90
7936;DHT22;4013;49.744;8.118;2022-10-23T16:16:40;17.40;99.90
7936;DHT22;4013;49.744;8.118;2022-10-23T16:19:08;17.30;99.90
7936;DHT22;4013;49.744;8.118;2022-10-23T16:21:36;17.30;99.90
7936;DHT22;4013;49.744;8.118;2022-10-23T16:24:05;17.30;99.90
7936;DHT22;4013;49.744;8.118;2022-10-23T16:26:33;17.30;99.90
7936;DHT22;4013;49.744;8.118;2022-10-23T16:29:03;17.30;99.90
7936;DHT22;4013;49.744;8.118;2022-10-23T16:31:31;17.30;99.90